sensor_id;sensor_type;location;lat;lon;timestamp;pressure;altitude;pressure_sealevel;temperature;humidity
83483;BME280;73420;32.678;-85.380;2023-12-29T00:01:01;98258.11;;;16.94;18.78
83483;BME280;73420;32.678;-85.380;2023-12-29T00:03:24;98259.52;;;16.98;18.81
83483;BME280;73420;32.678;-85.380;2023-12-29T00:05:50;98259.74;;;16.88;18.80
83483;BME280;73420;32.678;-85.380;2023-12-29T00:08:17;98262.67;;;16.75;19.10
83483;BME280;73420;32.678;-85.380;2023-12-29T00:10:41;98269.89;;;17.01;18.98
83483;BME280;73420;32.678;-85.380;2023-12-29T00:13:07;98275.86;;;16.66;19.28
83483;BME280;73420;32.678;-85.380;2023-12-29T00:15:32;98277.12;;;17.09;19.41
83483;BME280;73420;32.678;-85.380;2023-12-29T00:17:58;98278.07;;;17.07;19.27
83483;BME280;73420;32.678;-85.380;2023-12-29T00:20:23;98274.84;;;17.01;19.31
83483;BME280;73420;32.678;-85.380;2023-12-29T00:22:49;98274.57;;;17.04;19.00
83483;BME280;73420;32.678;-85.380;2023-12-29T00:25:15;98276.27;;;16.73;19.28
83483;BME280;73420;32.678;-85.380;2023-12-29T00:27:40;98274.32;;;16.78;19.49
83483;BME280;73420;32.678;-85.380;2023-12-29T00:30:07;98276.14;;;16.34;19.41
83483;BME280;73420;32.678;-85.380;2023-12-29T00:32:31;98281.27;;;16.57;19.38
83483;BME280;73420;32.678;-85.380;2023-12-29T00:34:57;98275.51;;;16.70;19.41
83483;BME280;73420;32.678;-85.380;2023-12-29T00:37:29;98278.49;;;16.71;19.49
83483;BME280;73420;32.678;-85.380;2023-12-29T00:39:48;98278.68;;;16.42;19.82
83483;BME280;73420;32.678;-85.380;2023-12-29T00:42:13;98277.58;;;16.60;20.00
83483;BME280;73420;32.678;-85.380;2023-12-29T00:44:39;98279.99;;;16.24;19.78
83483;BME280;73420;32.678;-85.380;2023-12-29T00:47:05;98285.33;;;16.31;19.74
83483;BME280;73420;32.678;-85.380;2023-12-29T00:49:38;98291.95;;;16.47;19.98
83483;BME280;73420;32.678;-85.380;2023-12-29T00:51:56;98293.60;;;16.08;19.71
83483;BME280;73420;32.678;-85.380;2023-12-29T00:54:21;98290.62;;;15.74;20.22
83483;BME280;73420;32.678;-85.380;2023-12-29T00:56:49;98288.56;;;15.85;20.37
83483;BME280;73420;32.678;-85.380;2023-12-29T00:59:13;98296.12;;;16.09;19.83
83483;BME280;73420;32.678;-85.380;2023-12-29T01:01:41;98299.90;;;16.10;19.87
83483;BME280;73420;32.678;-85.380;2023-12-29T01:04:04;98305.06;;;16.16;20.26
83483;BME280;73420;32.678;-85.380;2023-12-29T01:06:29;98305.42;;;16.07;20.13
83483;BME280;73420;32.678;-85.380;2023-12-29T01:08:55;98308.80;;;15.91;20.33
83483;BME280;73420;32.678;-85.380;2023-12-29T01:11:21;98309.47;;;15.90;20.25
83483;BME280;73420;32.678;-85.380;2023-12-29T01:13:46;98309.50;;;15.92;20.36
83483;BME280;73420;32.678;-85.380;2023-12-29T01:16:12;98309.09;;;15.78;20.53
83483;BME280;73420;32.678;-85.380;2023-12-29T01:18:37;98312.15;;;16.11;20.27
83483;BME280;73420;32.678;-85.380;2023-12-29T01:21:06;98313.83;;;16.12;20.26
83483;BME280;73420;32.678;-85.380;2023-12-29T01:23:28;98315.20;;;15.61;20.30
83483;BME280;73420;32.678;-85.380;2023-12-29T01:25:59;98315.29;;;15.81;20.39
83483;BME280;73420;32.678;-85.380;2023-12-29T01:28:20;98315.08;;;15.99;20.35
83483;BME280;73420;32.678;-85.380;2023-12-29T01:30:45;98314.67;;;15.69;20.55
83483;BME280;73420;32.678;-85.380;2023-12-29T01:33:11;98316.46;;;15.69;20.41
83483;BME280;73420;32.678;-85.380;2023-12-29T01:35:38;98315.13;;;15.47;20.44
83483;BME280;73420;32.678;-85.380;2023-12-29T01:38:04;98312.66;;;15.44;20.56
83483;BME280;73420;32.678;-85.380;2023-12-29T01:40:28;98309.35;;;15.18;20.79
83483;BME280;73420;32.678;-85.380;2023-12-29T01:42:53;98310.51;;;14.80;21.03
83483;BME280;73420;32.678;-85.380;2023-12-29T01:45:21;98311.49;;;14.92;21.02
83483;BME280;73420;32.678;-85.380;2023-12-29T01:47:45;98314.31;;;14.72;20.78
83483;BME280;73420;32.678;-85.380;2023-12-29T01:50:11;98314.49;;;13.92;21.02
83483;BME280;73420;32.678;-85.380;2023-12-29T01:52:36;98319.44;;;14.18;20.88
83483;BME280;73420;32.678;-85.380;2023-12-29T01:55:02;98323.08;;;14.46;20.68
83483;BME280;73420;32.678;-85.380;2023-12-29T01:57:27;98330.15;;;14.58;20.68
83483;BME280;73420;32.678;-85.380;2023-12-29T01:59:53;98339.21;;;14.77;20.88
83483;BME280;73420;32.678;-85.380;2023-12-29T02:02:19;98342.45;;;14.44;20.62
83483;BME280;73420;32.678;-85.380;2023-12-29T02:04:45;98351.12;;;14.56;20.77
83483;BME280;73420;32.678;-85.380;2023-12-29T02:07:10;98347.63;;;14.49;20.83
83483;BME280;73420;32.678;-85.380;2023-12-29T02:09:36;98351.15;;;14.43;21.01
83483;BME280;73420;32.678;-85.380;2023-12-29T02:12:01;98354.07;;;14.12;20.77
83483;BME280;73420;32.678;-85.380;2023-12-29T02:14:27;98360.56;;;14.31;21.00
83483;BME280;73420;32.678;-85.380;2023-12-29T02:17:00;98358.39;;;14.27;21.15
83483;BME280;73420;32.678;-85.380;2023-12-29T02:19:28;98357.33;;;14.36;20.99
83483;BME280;73420;32.678;-85.380;2023-12-29T02:21:43;98356.67;;;14.13;21.17
83483;BME280;73420;32.678;-85.380;2023-12-29T02:24:09;98356.32;;;13.87;21.04
83483;BME280;73420;32.678;-85.380;2023-12-29T02:26:36;98349.82;;;14.09;21.16
83483;BME280;73420;32.678;-85.380;2023-12-29T02:29:02;98350.71;;;14.27;20.65
83483;BME280;73420;32.678;-85.380;2023-12-29T02:31:28;98355.88;;;13.65;20.97
83483;BME280;73420;32.678;-85.380;2023-12-29T02:33:52;98353.86;;;13.83;21.04
83483;BME280;73420;32.678;-85.380;2023-12-29T02:36:17;98354.19;;;13.50;21.13
83483;BME280;73420;32.678;-85.380;2023-12-29T02:38:43;98358.95;;;13.93;20.75
83483;BME280;73420;32.678;-85.380;2023-12-29T02:41:09;98361.44;;;13.71;21.06
83483;BME280;73420;32.678;-85.380;2023-12-29T02:43:34;98359.39;;;13.76;20.98
83483;BME280;73420;32.678;-85.380;2023-12-29T02:46:00;98356.77;;;14.07;20.73
83483;BME280;73420;32.678;-85.380;2023-12-29T02:48:25;98352.18;;;14.25;20.72
83483;BME280;73420;32.678;-85.380;2023-12-29T02:50:51;98348.95;;;14.09;21.04
83483;BME280;73420;32.678;-85.380;2023-12-29T02:53:17;98350.56;;;13.55;21.12
83483;BME280;73420;32.678;-85.380;2023-12-29T02:55:42;98349.98;;;13.70;21.39
83483;BME280;73420;32.678;-85.380;2023-12-29T02:58:09;98349.35;;;13.70;20.91
83483;BME280;73420;32.678;-85.380;2023-12-29T03:00:33;98351.23;;;14.16;20.76
83483;BME280;73420;32.678;-85.380;2023-12-29T03:02:59;98353.44;;;13.74;20.72
83483;BME280;73420;32.678;-85.380;2023-12-29T03:05:25;98354.86;;;13.60;20.81
83483;BME280;73420;32.678;-85.380;2023-12-29T03:07:50;98355.82;;;13.84;21.20
83483;BME280;73420;32.678;-85.380;2023-12-29T03:10:16;98359.85;;;13.53;21.00
83483;BME280;73420;32.678;-85.380;2023-12-29T03:12:41;98362.22;;;13.44;21.16
83483;BME280;73420;32.678;-85.380;2023-12-29T03:15:09;98358.84;;;13.79;20.95
83483;BME280;73420;32.678;-85.380;2023-12-29T03:17:33;98364.43;;;13.43;20.78
83483;BME280;73420;32.678;-85.380;2023-12-29T03:19:59;98367.73;;;13.25;21.31
83483;BME280;73420;32.678;-85.380;2023-12-29T03:22:24;98372.09;;;13.59;21.02
83483;BME280;73420;32.678;-85.380;2023-12-29T03:24:50;98371.97;;;13.54;21.15
83483;BME280;73420;32.678;-85.380;2023-12-29T03:27:19;98382.63;;;13.59;21.13
83483;BME280;73420;32.678;-85.380;2023-12-29T03:29:41;98381.21;;;13.59;20.81
83483;BME280;73420;32.678;-85.380;2023-12-29T03:32:07;98387.87;;;13.46;20.74
83483;BME280;73420;32.678;-85.380;2023-12-29T03:34:32;98394.69;;;13.62;20.86
83483;BME280;73420;32.678;-85.380;2023-12-29T03:36:58;98398.13;;;13.80;20.73
83483;BME280;73420;32.678;-85.380;2023-12-29T03:39:24;98401.14;;;13.46;20.99
83483;BME280;73420;32.678;-85.380;2023-12-29T03:41:49;98402.00;;;13.74;20.80
83483;BME280;73420;32.678;-85.380;2023-12-29T03:44:14;98406.06;;;13.96;20.57
83483;BME280;73420;32.678;-85.380;2023-12-29T03:46:40;98405.69;;;13.90;20.62
83483;BME280;73420;32.678;-85.380;2023-12-29T03:49:06;98412.68;;;13.11;20.97
83483;BME280;73420;32.678;-85.380;2023-12-29T03:51:33;98411.26;;;13.66;20.90
83483;BME280;73420;32.678;-85.380;2023-12-29T03:53:57;98419.14;;;13.81;20.80
83483;BME280;73420;32.678;-85.380;2023-12-29T03:56:23;98423.61;;;14.23;20.72
83483;BME280;73420;32.678;-85.380;2023-12-29T03:58:48;98422.97;;;13.74;20.60
83483;BME280;73420;32.678;-85.380;2023-12-29T04:01:15;98425.60;;;13.58;21.19
83483;BME280;73420;32.678;-85.380;2023-12-29T04:03:42;98422.59;;;14.16;20.72
83483;BME280;73420;32.678;-85.380;2023-12-29T04:06:06;98426.22;;;13.98;20.55
83483;BME280;73420;32.678;-85.380;2023-12-29T04:08:31;98428.77;;;14.00;20.65
83483;BME280;73420;32.678;-85.380;2023-12-29T04:10:57;98424.62;;;13.63;20.45
83483;BME280;73420;32.678;-85.380;2023-12-29T04:13:22;98424.30;;;14.41;20.47
83483;BME280;73420;32.678;-85.380;2023-12-29T04:15:51;98430.08;;;13.87;20.79
83483;BME280;73420;32.678;-85.380;2023-12-29T04:18:13;98429.88;;;13.74;20.80
83483;BME280;73420;32.678;-85.380;2023-12-29T04:20:39;98429.18;;;13.37;21.03
83483;BME280;73420;32.678;-85.380;2023-12-29T04:23:06;98426.42;;;13.83;20.69
83483;BME280;73420;32.678;-85.380;2023-12-29T04:25:30;98424.78;;;14.13;20.53
83483;BME280;73420;32.678;-85.380;2023-12-29T04:27:56;98422.49;;;13.87;20.67
83483;BME280;73420;32.678;-85.380;2023-12-29T04:30:21;98418.34;;;13.71;20.45
83483;BME280;73420;32.678;-85.380;2023-12-29T04:32:47;98419.22;;;13.56;20.88
83483;BME280;73420;32.678;-85.380;2023-12-29T04:35:13;98417.77;;;13.70;20.67
83483;BME280;73420;32.678;-85.380;2023-12-29T04:37:38;98409.93;;;13.96;20.59
83483;BME280;73420;32.678;-85.380;2023-12-29T04:40:05;98408.80;;;14.15;20.45
83483;BME280;73420;32.678;-85.380;2023-12-29T04:42:29;98410.36;;;14.07;20.47
83483;BME280;73420;32.678;-85.380;2023-12-29T04:44:55;98408.32;;;14.25;20.65
83483;BME280;73420;32.678;-85.380;2023-12-29T04:47:20;98400.47;;;13.98;20.44
83483;BME280;73420;32.678;-85.380;2023-12-29T04:49:46;98404.16;;;13.96;20.90
83483;BME280;73420;32.678;-85.380;2023-12-29T04:52:12;98401.88;;;14.15;20.68
83483;BME280;73420;32.678;-85.380;2023-12-29T04:54:37;98397.70;;;14.00;20.78
83483;BME280;73420;32.678;-85.380;2023-12-29T04:57:03;98393.90;;;14.21;20.68
83483;BME280;73420;32.678;-85.380;2023-12-29T04:59:28;98384.56;;;13.99;20.65
83483;BME280;73420;32.678;-85.380;2023-12-29T05:01:54;98381.75;;;13.37;21.00
83483;BME280;73420;32.678;-85.380;2023-12-29T05:04:22;98378.56;;;13.22;21.18
83483;BME280;73420;32.678;-85.380;2023-12-29T05:06:45;98380.20;;;13.73;20.97
83483;BME280;73420;32.678;-85.380;2023-12-29T05:09:11;98375.00;;;13.99;21.20
83483;BME280;73420;32.678;-85.380;2023-12-29T05:11:37;98366.00;;;14.06;21.05
83483;BME280;73420;32.678;-85.380;2023-12-29T05:14:02;98366.07;;;13.44;21.01
83483;BME280;73420;32.678;-85.380;2023-12-29T05:16:30;98364.14;;;13.72;20.95
83483;BME280;73420;32.678;-85.380;2023-12-29T05:18:54;98364.60;;;13.61;20.90
83483;BME280;73420;32.678;-85.380;2023-12-29T05:21:19;98367.03;;;13.83;20.86
83483;BME280;73420;32.678;-85.380;2023-12-29T05:23:45;98367.42;;;13.95;20.72
83483;BME280;73420;32.678;-85.380;2023-12-29T05:26:11;98362.87;;;14.09;20.99
83483;BME280;73420;32.678;-85.380;2023-12-29T05:28:40;98358.09;;;14.41;20.46
83483;BME280;73420;32.678;-85.380;2023-12-29T05:31:02;98361.53;;;13.94;21.07
83483;BME280;73420;32.678;-85.380;2023-12-29T05:33:28;98364.63;;;13.93;20.89
83483;BME280;73420;32.678;-85.380;2023-12-29T05:35:53;98363.75;;;14.47;21.12
83483;BME280;73420;32.678;-85.380;2023-12-29T05:38:19;98365.71;;;13.88;20.88
83483;BME280;73420;32.678;-85.380;2023-12-29T05:40:45;98359.39;;;13.78;20.77
83483;BME280;73420;32.678;-85.380;2023-12-29T05:43:10;98355.89;;;14.44;20.73
83483;BME280;73420;32.678;-85.380;2023-12-29T05:45:36;98353.12;;;14.11;20.79
83483;BME280;73420;32.678;-85.380;2023-12-29T05:48:02;98348.71;;;14.45;20.59
83483;BME280;73420;32.678;-85.380;2023-12-29T05:50:27;98340.58;;;14.05;21.21
83483;BME280;73420;32.678;-85.380;2023-12-29T05:52:53;98340.13;;;13.87;21.36
83483;BME280;73420;32.678;-85.380;2023-12-29T05:55:19;98340.18;;;13.77;21.30
83483;BME280;73420;32.678;-85.380;2023-12-29T05:57:44;98343.43;;;13.25;21.41
83483;BME280;73420;32.678;-85.380;2023-12-29T06:02:35;98346.97;;;13.67;21.60
83483;BME280;73420;32.678;-85.380;2023-12-29T06:05:06;98339.83;;;13.68;21.76
83483;BME280;73420;32.678;-85.380;2023-12-29T06:07:27;98335.78;;;13.93;21.72
83483;BME280;73420;32.678;-85.380;2023-12-29T06:09:52;98331.87;;;13.57;21.40
83483;BME280;73420;32.678;-85.380;2023-12-29T06:12:18;98333.01;;;13.33;21.49
83483;BME280;73420;32.678;-85.380;2023-12-29T06:14:43;98330.73;;;13.41;21.51
83483;BME280;73420;32.678;-85.380;2023-12-29T06:17:14;98335.03;;;13.19;21.90
83483;BME280;73420;32.678;-85.380;2023-12-29T06:19:35;98333.65;;;13.14;21.69
83483;BME280;73420;32.678;-85.380;2023-12-29T06:22:04;98328.06;;;13.52;21.56
83483;BME280;73420;32.678;-85.380;2023-12-29T06:24:26;98329.37;;;13.35;21.64
83483;BME280;73420;32.678;-85.380;2023-12-29T06:26:52;98327.72;;;13.54;21.86
83483;BME280;73420;32.678;-85.380;2023-12-29T06:29:18;98326.79;;;13.48;21.88
83483;BME280;73420;32.678;-85.380;2023-12-29T06:31:43;98325.30;;;13.35;21.89
83483;BME280;73420;32.678;-85.380;2023-12-29T06:34:09;98325.06;;;13.14;21.94
83483;BME280;73420;32.678;-85.380;2023-12-29T06:36:34;98324.48;;;12.83;22.12
83483;BME280;73420;32.678;-85.380;2023-12-29T06:39:02;98322.51;;;13.15;22.14
83483;BME280;73420;32.678;-85.380;2023-12-29T06:41:29;98314.96;;;13.16;22.18
83483;BME280;73420;32.678;-85.380;2023-12-29T06:43:51;98311.98;;;12.78;22.19
83483;BME280;73420;32.678;-85.380;2023-12-29T06:46:17;98314.28;;;12.76;22.24
83483;BME280;73420;32.678;-85.380;2023-12-29T06:48:43;98314.25;;;12.76;22.44
83483;BME280;73420;32.678;-85.380;2023-12-29T06:51:09;98318.57;;;12.73;22.53
83483;BME280;73420;32.678;-85.380;2023-12-29T06:53:36;98328.17;;;12.29;22.74
83483;BME280;73420;32.678;-85.380;2023-12-29T06:56:00;98329.78;;;12.22;22.80
83483;BME280;73420;32.678;-85.380;2023-12-29T06:58:26;98330.30;;;12.31;22.81
83483;BME280;73420;32.678;-85.380;2023-12-29T07:00:51;98332.96;;;12.66;22.58
83483;BME280;73420;32.678;-85.380;2023-12-29T07:03:17;98334.13;;;12.56;22.56
83483;BME280;73420;32.678;-85.380;2023-12-29T07:05:43;98335.42;;;13.33;22.44
83483;BME280;73420;32.678;-85.380;2023-12-29T07:08:08;98341.54;;;12.40;22.60
83483;BME280;73420;32.678;-85.380;2023-12-29T07:10:34;98347.71;;;12.32;22.62
83483;BME280;73420;32.678;-85.380;2023-12-29T07:13:00;98349.95;;;11.75;23.12
83483;BME280;73420;32.678;-85.380;2023-12-29T07:15:25;98349.11;;;11.44;23.40
83483;BME280;73420;32.678;-85.380;2023-12-29T07:17:54;98348.91;;;11.80;23.04
83483;BME280;73420;32.678;-85.380;2023-12-29T07:20:17;98350.10;;;11.67;23.19
83483;BME280;73420;32.678;-85.380;2023-12-29T07:22:42;98353.24;;;12.03;22.93
83483;BME280;73420;32.678;-85.380;2023-12-29T07:25:09;98356.64;;;12.26;22.73
83483;BME280;73420;32.678;-85.380;2023-12-29T07:27:34;98360.14;;;12.67;22.66
83483;BME280;73420;32.678;-85.380;2023-12-29T07:30:00;98358.62;;;11.93;22.86
83483;BME280;73420;32.678;-85.380;2023-12-29T07:32:25;98357.54;;;11.73;23.22
83483;BME280;73420;32.678;-85.380;2023-12-29T07:34:51;98358.80;;;12.15;22.80
83483;BME280;73420;32.678;-85.380;2023-12-29T07:37:16;98357.19;;;12.12;22.78
83483;BME280;73420;32.678;-85.380;2023-12-29T07:39:42;98360.19;;;12.29;22.64
83483;BME280;73420;32.678;-85.380;2023-12-29T07:42:08;98361.96;;;12.50;22.51
83483;BME280;73420;32.678;-85.380;2023-12-29T07:44:33;98361.17;;;12.30;22.66
83483;BME280;73420;32.678;-85.380;2023-12-29T07:46:59;98361.92;;;12.75;22.46
83483;BME280;73420;32.678;-85.380;2023-12-29T07:49:25;98360.30;;;12.52;22.44
83483;BME280;73420;32.678;-85.380;2023-12-29T07:51:50;98362.51;;;12.42;22.66
83483;BME280;73420;32.678;-85.380;2023-12-29T07:54:19;98365.31;;;12.64;22.61
83483;BME280;73420;32.678;-85.380;2023-12-29T07:56:42;98363.21;;;12.70;22.68
83483;BME280;73420;32.678;-85.380;2023-12-29T07:59:07;98363.41;;;12.77;22.55
83483;BME280;73420;32.678;-85.380;2023-12-29T08:01:33;98359.20;;;13.05;22.06
83483;BME280;73420;32.678;-85.380;2023-12-29T08:03:59;98351.15;;;12.93;22.24
83483;BME280;73420;32.678;-85.380;2023-12-29T08:06:25;98344.44;;;12.77;22.38
83483;BME280;73420;32.678;-85.380;2023-12-29T08:08:50;98341.79;;;12.71;22.23
83483;BME280;73420;32.678;-85.380;2023-12-29T08:11:16;98342.94;;;13.00;22.39
83483;BME280;73420;32.678;-85.380;2023-12-29T08:13:42;98342.29;;;12.79;22.70
83483;BME280;73420;32.678;-85.380;2023-12-29T08:16:07;98344.36;;;12.84;22.57
83483;BME280;73420;32.678;-85.380;2023-12-29T08:18:33;98347.15;;;12.65;23.01
83483;BME280;73420;32.678;-85.380;2023-12-29T08:20:58;98342.37;;;12.77;22.62
83483;BME280;73420;32.678;-85.380;2023-12-29T08:23:24;98341.19;;;12.42;22.79
83483;BME280;73420;32.678;-85.380;2023-12-29T08:25:50;98334.49;;;12.80;22.67
83483;BME280;73420;32.678;-85.380;2023-12-29T08:28:15;98332.86;;;12.74;22.65
83483;BME280;73420;32.678;-85.380;2023-12-29T08:30:48;98332.22;;;12.41;22.59
83483;BME280;73420;32.678;-85.380;2023-12-29T08:33:07;98330.48;;;12.36;22.73
83483;BME280;73420;32.678;-85.380;2023-12-29T08:35:32;98330.11;;;13.03;22.41
83483;BME280;73420;32.678;-85.380;2023-12-29T08:37:58;98330.76;;;12.84;22.45
83483;BME280;73420;32.678;-85.380;2023-12-29T08:40:23;98329.27;;;12.93;22.55
83483;BME280;73420;32.678;-85.380;2023-12-29T08:42:49;98328.22;;;13.02;22.58
83483;BME280;73420;32.678;-85.380;2023-12-29T08:45:15;98334.70;;;13.11;22.40
83483;BME280;73420;32.678;-85.380;2023-12-29T08:47:40;98343.02;;;12.17;22.82
83483;BME280;73420;32.678;-85.380;2023-12-29T08:50:07;98342.98;;;12.72;22.81
83483;BME280;73420;32.678;-85.380;2023-12-29T08:52:32;98346.63;;;12.93;22.51
83483;BME280;73420;32.678;-85.380;2023-12-29T08:54:58;98351.12;;;12.68;22.71
83483;BME280;73420;32.678;-85.380;2023-12-29T08:57:23;98353.56;;;12.99;22.44
83483;BME280;73420;32.678;-85.380;2023-12-29T08:59:49;98358.78;;;13.03;22.48
83483;BME280;73420;32.678;-85.380;2023-12-29T09:02:14;98362.02;;;13.00;22.53
83483;BME280;73420;32.678;-85.380;2023-12-29T09:04:40;98362.22;;;12.83;22.67
83483;BME280;73420;32.678;-85.380;2023-12-29T09:07:09;98359.44;;;13.22;22.14
83483;BME280;73420;32.678;-85.380;2023-12-29T09:09:31;98366.14;;;12.79;22.36
83483;BME280;73420;32.678;-85.380;2023-12-29T09:11:57;98362.05;;;13.02;22.41
83483;BME280;73420;32.678;-85.380;2023-12-29T09:14:23;98360.46;;;12.66;22.64
83483;BME280;73420;32.678;-85.380;2023-12-29T09:16:48;98359.07;;;12.89;22.55
83483;BME280;73420;32.678;-85.380;2023-12-29T09:19:16;98359.24;;;13.69;22.38
83483;BME280;73420;32.678;-85.380;2023-12-29T09:21:40;98363.81;;;13.15;22.53
83483;BME280;73420;32.678;-85.380;2023-12-29T09:24:06;98366.58;;;13.54;22.20
83483;BME280;73420;32.678;-85.380;2023-12-29T09:26:31;98366.79;;;14.05;21.99
83483;BME280;73420;32.678;-85.380;2023-12-29T09:28:57;98372.62;;;13.82;22.11
83483;BME280;73420;32.678;-85.380;2023-12-29T09:31:23;98378.43;;;13.50;22.03
83483;BME280;73420;32.678;-85.380;2023-12-29T09:33:48;98376.36;;;13.74;22.36
83483;BME280;73420;32.678;-85.380;2023-12-29T09:36:13;98365.60;;;12.91;22.45
83483;BME280;73420;32.678;-85.380;2023-12-29T09:38:40;98363.95;;;13.48;22.50
83483;BME280;73420;32.678;-85.380;2023-12-29T09:41:09;98364.73;;;14.08;22.09
83483;BME280;73420;32.678;-85.380;2023-12-29T09:43:31;98361.64;;;12.99;22.48
83483;BME280;73420;32.678;-85.380;2023-12-29T09:45:56;98355.63;;;12.80;22.89
83483;BME280;73420;32.678;-85.380;2023-12-29T09:48:23;98359.70;;;13.35;22.64
83483;BME280;73420;32.678;-85.380;2023-12-29T09:50:50;98357.17;;;13.03;23.01
83483;BME280;73420;32.678;-85.380;2023-12-29T09:53:13;98357.98;;;13.68;22.31
83483;BME280;73420;32.678;-85.380;2023-12-29T09:55:39;98360.54;;;13.09;22.75
83483;BME280;73420;32.678;-85.380;2023-12-29T09:58:05;98362.71;;;13.35;22.70
83483;BME280;73420;32.678;-85.380;2023-12-29T10:00:30;98366.96;;;13.69;22.63
83483;BME280;73420;32.678;-85.380;2023-12-29T10:02:55;98368.29;;;13.34;22.72
83483;BME280;73420;32.678;-85.380;2023-12-29T10:05:21;98372.96;;;13.57;22.51
83483;BME280;73420;32.678;-85.380;2023-12-29T10:08:13;98380.57;;;12.89;22.97
83483;BME280;73420;32.678;-85.380;2023-12-29T10:10:15;98382.71;;;13.14;22.94
83483;BME280;73420;32.678;-85.380;2023-12-29T10:12:38;98378.02;;;12.99;22.63
83483;BME280;73420;32.678;-85.380;2023-12-29T10:15:06;98376.08;;;12.99;22.68
83483;BME280;73420;32.678;-85.380;2023-12-29T10:17:39;98380.32;;;13.38;22.48
83483;BME280;73420;32.678;-85.380;2023-12-29T10:20:02;98376.90;;;13.45;22.40
83483;BME280;73420;32.678;-85.380;2023-12-29T10:22:25;98379.23;;;13.30;22.40
83483;BME280;73420;32.678;-85.380;2023-12-29T10:24:46;98383.96;;;13.47;22.25
83483;BME280;73420;32.678;-85.380;2023-12-29T10:27:12;98385.75;;;13.55;22.28
83483;BME280;73420;32.678;-85.380;2023-12-29T10:29:37;98394.54;;;13.37;22.51
83483;BME280;73420;32.678;-85.380;2023-12-29T10:32:10;98396.29;;;12.90;22.53
83483;BME280;73420;32.678;-85.380;2023-12-29T10:34:28;98395.83;;;12.97;22.95
83483;BME280;73420;32.678;-85.380;2023-12-29T10:36:55;98395.41;;;12.75;23.13
83483;BME280;73420;32.678;-85.380;2023-12-29T10:39:20;98393.10;;;12.07;23.44
83483;BME280;73420;32.678;-85.380;2023-12-29T10:41:45;98393.97;;;12.54;23.22
83483;BME280;73420;32.678;-85.380;2023-12-29T10:44:12;98396.04;;;12.49;23.29
83483;BME280;73420;32.678;-85.380;2023-12-29T10:46:37;98395.71;;;11.94;23.70
83483;BME280;73420;32.678;-85.380;2023-12-29T10:49:07;98400.48;;;12.14;23.53
83483;BME280;73420;32.678;-85.380;2023-12-29T10:51:28;98405.40;;;11.78;23.92
83483;BME280;73420;32.678;-85.380;2023-12-29T10:53:55;98406.89;;;11.12;24.41
83483;BME280;73420;32.678;-85.380;2023-12-29T10:56:20;98407.23;;;11.41;24.40
83483;BME280;73420;32.678;-85.380;2023-12-29T10:58:45;98410.38;;;11.53;24.11
83483;BME280;73420;32.678;-85.380;2023-12-29T11:01:14;98412.87;;;11.31;24.49
83483;BME280;73420;32.678;-85.380;2023-12-29T11:03:36;98417.34;;;11.13;24.39
83483;BME280;73420;32.678;-85.380;2023-12-29T11:06:02;98417.50;;;11.70;24.06
83483;BME280;73420;32.678;-85.380;2023-12-29T11:08:28;98419.42;;;11.61;24.15
83483;BME280;73420;32.678;-85.380;2023-12-29T11:10:55;98421.31;;;11.06;24.45
83483;BME280;73420;32.678;-85.380;2023-12-29T11:13:20;98419.37;;;12.00;24.12
83483;BME280;73420;32.678;-85.380;2023-12-29T11:15:45;98418.37;;;11.68;24.05
83483;BME280;73420;32.678;-85.380;2023-12-29T11:18:14;98420.40;;;11.83;24.16
83483;BME280;73420;32.678;-85.380;2023-12-29T11:20:37;98423.70;;;11.82;24.23
83483;BME280;73420;32.678;-85.380;2023-12-29T11:23:02;98432.17;;;11.82;24.06
83483;BME280;73420;32.678;-85.380;2023-12-29T11:25:28;98432.14;;;11.94;23.99
83483;BME280;73420;32.678;-85.380;2023-12-29T11:27:54;98435.15;;;12.08;23.85
83483;BME280;73420;32.678;-85.380;2023-12-29T11:30:19;98432.15;;;12.07;23.87
83483;BME280;73420;32.678;-85.380;2023-12-29T11:32:51;98433.61;;;12.41;23.82
83483;BME280;73420;32.678;-85.380;2023-12-29T11:35:15;98437.49;;;11.95;23.83
83483;BME280;73420;32.678;-85.380;2023-12-29T11:37:47;98438.34;;;12.12;24.03
83483;BME280;73420;32.678;-85.380;2023-12-29T11:40:10;98441.44;;;11.50;24.41
83483;BME280;73420;32.678;-85.380;2023-12-29T11:42:33;98442.83;;;11.53;24.32
83483;BME280;73420;32.678;-85.380;2023-12-29T11:45:03;98448.84;;;11.44;24.29
83483;BME280;73420;32.678;-85.380;2023-12-29T11:47:35;98455.47;;;11.11;24.52
83483;BME280;73420;32.678;-85.380;2023-12-29T11:52:10;98454.37;;;11.61;24.34
83483;BME280;73420;32.678;-85.380;2023-12-29T11:54:36;98457.63;;;11.37;24.33
83483;BME280;73420;32.678;-85.380;2023-12-29T11:57:08;98455.46;;;11.36;24.59
83483;BME280;73420;32.678;-85.380;2023-12-29T11:59:27;98460.03;;;11.95;24.36
83483;BME280;73420;32.678;-85.380;2023-12-29T12:01:54;98462.92;;;11.84;24.52
83483;BME280;73420;32.678;-85.380;2023-12-29T12:04:34;98464.89;;;11.52;24.23
83483;BME280;73420;32.678;-85.380;2023-12-29T12:06:44;98472.75;;;11.68;24.29
83483;BME280;73420;32.678;-85.380;2023-12-29T12:09:22;98475.61;;;12.14;24.18
83483;BME280;73420;32.678;-85.380;2023-12-29T12:11:43;98484.16;;;11.95;24.22
83483;BME280;73420;32.678;-85.380;2023-12-29T12:14:03;98483.51;;;11.61;24.08
83483;BME280;73420;32.678;-85.380;2023-12-29T12:18:52;98487.41;;;11.57;24.48
83483;BME280;73420;32.678;-85.380;2023-12-29T12:21:19;98489.99;;;11.69;24.42
83483;BME280;73420;32.678;-85.380;2023-12-29T12:23:44;98495.06;;;11.55;24.58
83483;BME280;73420;32.678;-85.380;2023-12-29T12:26:10;98502.46;;;11.28;24.79
83483;BME280;73420;32.678;-85.380;2023-12-29T12:28:35;98503.90;;;10.89;25.19
83483;BME280;73420;32.678;-85.380;2023-12-29T12:31:06;98508.66;;;10.80;25.26
83483;BME280;73420;32.678;-85.380;2023-12-29T12:33:28;98512.10;;;10.86;25.32
83483;BME280;73420;32.678;-85.380;2023-12-29T12:35:59;98518.68;;;11.11;24.95
83483;BME280;73420;32.678;-85.380;2023-12-29T12:38:18;98514.37;;;11.26;24.85